Big Bear Station Historical Data
 
Daily Summary for December 14, 2017 Units:  English    Metric   Both
« Previous Day
Next Day »
Daily Weekly Monthly Yearly Custom
  Current: High: Low: Average:
Temperature: 37.4 °F 52.9 °F 24.6 °F 43.7 °F
Dew Point: -3.5 °F 19.8 °F -9.1 °F 6.8 °F
Humidity: 17 % 55 % 8 % 24 %
Wind Speed: 1.1 mph 14.0 mph 0.0 mph 5.6 mph
Wind Gust: -999.0 mph -999.0 mph - -
Wind:WNW - - West
Pressure: 30.35 in 30.35 in 30.20 in -
Precipitation: 0.00 in      
Historical Graphs
 
 
Tabular Data for December 14, 2017
Time Temperature Dew Point Pressure Wind Wind Speed Wind Gust Humidity Rainfall Rate (Hourly)
00:00 25.0 °F 7.6 °F 30.24 in Calm   -999.0 mph 47 % 0 in
00:15 24.6 °F 8.6 °F 30.24 in Calm   -999.0 mph 50 % 0 in
00:30 24.8 °F 9.2 °F 30.24 in Calm   -999.0 mph 51 % 0 in
01:01 25.0 °F 11.1 °F 30.23 in Calm   -999.0 mph 55 % 0 in
01:16 24.8 °F 10.1 °F 30.24 in Calm   -999.0 mph 53 % 0 in
01:31 25.0 °F 10.7 °F 30.24 in Calm   -999.0 mph 54 % 0 in
01:46 25.0 °F 10.7 °F 30.23 in Calm   -999.0 mph 54 % 0 in
02:01 26.4 °F 7.9 °F 30.23 in SSW 1.7 mph -999.0 mph 45 % 0 in
02:17 32.9 °F 0.9 °F 30.22 in ESE 1.7 mph -999.0 mph 25 % 0 in
02:32 38.5 °F 0.8 °F 30.22 in SSW 2.2 mph -999.0 mph 20 % 0 in
02:47 38.5 °F 2.9 °F 30.22 in ENE 1.7 mph -999.0 mph 22 % 0 in
03:02 46.0 °F 3.6 °F 30.22 in NW 8.9 mph -999.0 mph 17 % 0 in
03:18 46.6 °F 4.1 °F 30.21 in NW 7.3 mph -999.0 mph 17 % 0 in
03:33 46.8 °F 4.2 °F 30.21 in North 4.2 mph -999.0 mph 17 % 0 in
03:48 46.6 °F 4.1 °F 30.21 in NNW 10.9 mph -999.0 mph 17 % 0 in
04:03 46.6 °F 5.3 °F 30.20 in NW 8.9 mph -999.0 mph 18 % 0 in
04:18 47.8 °F 3.7 °F 30.20 in NNW 9.4 mph -999.0 mph 16 % 0 in
04:34 47.3 °F 4.6 °F 30.21 in NNW 13.5 mph -999.0 mph 17 % 0 in
04:49 46.8 °F 6.7 °F 30.21 in NW 10.9 mph -999.0 mph 19 % 0 in
05:05 46.8 °F 9.9 °F 30.22 in North 11.4 mph -999.0 mph 22 % 0 in
05:20 46.6 °F 12.6 °F 30.22 in North 13.0 mph -999.0 mph 25 % 0 in
05:35 46.0 °F 12.1 °F 30.22 in NNW 9.9 mph -999.0 mph 25 % 0 in
05:51 44.6 °F 9.0 °F 30.23 in NNW 11.4 mph -999.0 mph 23 % 0 in
06:06 44.1 °F 9.6 °F 30.24 in NW 14.0 mph -999.0 mph 24 % 0 in
06:21 43.5 °F 9.1 °F 30.25 in NNW 9.4 mph -999.0 mph 24 % 0 in
06:37 43.2 °F 11.4 °F 30.25 in NW 12.5 mph -999.0 mph 27 % 0 in
06:52 43.5 °F 16.3 °F 30.25 in NNW 14.0 mph -999.0 mph 33 % 0 in
07:07 43.3 °F 16.8 °F 30.25 in NNW 11.4 mph -999.0 mph 34 % 0 in
07:23 43.5 °F 17.6 °F 30.25 in NNW 13.0 mph -999.0 mph 35 % 0 in
07:38 43.2 °F 17.4 °F 30.26 in NW 11.9 mph -999.0 mph 35 % 0 in
07:54 43.5 °F 17.0 °F 30.26 in North 9.9 mph -999.0 mph 34 % 0 in
08:09 43.7 °F 17.1 °F 30.27 in WNW 11.4 mph -999.0 mph 34 % 0 in
08:24 43.7 °F 17.1 °F 30.27 in WNW 11.9 mph -999.0 mph 34 % 0 in
08:39 44.6 °F 17.2 °F 30.27 in NW 11.4 mph -999.0 mph 33 % 0 in
08:55 45.0 °F 18.3 °F 30.27 in North 8.9 mph -999.0 mph 34 % 0 in
09:10 45.9 °F 17.7 °F 30.27 in WNW 10.9 mph -999.0 mph 32 % 0 in
09:26 46.0 °F 18.5 °F 30.28 in NW 10.4 mph -999.0 mph 33 % 0 in
09:41 46.8 °F 19.2 °F 30.28 in WNW 7.3 mph -999.0 mph 33 % 0 in
09:56 47.5 °F 19.8 °F 30.28 in NNW 10.9 mph -999.0 mph 33 % 0 in
10:11 49.1 °F 15.7 °F 30.28 in WNW 9.9 mph -999.0 mph 26 % 0 in
10:27 49.3 °F 15.8 °F 30.29 in NW 6.3 mph -999.0 mph 26 % 0 in
10:42 49.8 °F 14.4 °F 30.29 in East 6.3 mph -999.0 mph 24 % 0 in
10:58 51.3 °F 12.6 °F 30.28 in North 4.7 mph -999.0 mph 21 % 0 in
11:13 51.3 °F 14.7 °F 30.28 in WNW 4.2 mph -999.0 mph 23 % 0 in
11:28 51.6 °F 11.8 °F 30.28 in NW 5.3 mph -999.0 mph 20 % 0 in
11:44 51.6 °F 12.9 °F 30.28 in East 4.7 mph -999.0 mph 21 % 0 in
11:59 52.9 °F 10.5 °F 30.28 in ENE 3.7 mph -999.0 mph 18 % 0 in
12:14 52.2 °F 9.9 °F 30.28 in East 4.7 mph -999.0 mph 18 % 0 in
12:29 51.4 °F 12.7 °F 30.28 in WNW 1.1 mph -999.0 mph 21 % 0 in
12:45 51.4 °F 11.6 °F 30.28 in WNW 4.2 mph -999.0 mph 20 % 0 in
13:00 51.1 °F 10.2 °F 30.28 in West 7.8 mph -999.0 mph 19 % 0 in
13:15 51.1 °F 6.4 °F 30.28 in NE 1.7 mph -999.0 mph 16 % 0 in
13:31 52.0 °F 0.9 °F 30.27 in NNW 2.7 mph -999.0 mph 12 % 0 in
13:46 52.0 °F -1.0 °F 30.27 in NNW 6.3 mph -999.0 mph 11 % 0 in
14:01 52.0 °F -1.0 °F 30.27 in East 6.3 mph -999.0 mph 11 % 0 in
14:16 51.3 °F 0.3 °F 30.27 in North 4.7 mph -999.0 mph 12 % 0 in
14:31 51.4 °F -1.4 °F 30.27 in NW 4.2 mph -999.0 mph 11 % 0 in
14:47 51.3 °F -5.7 °F 30.27 in SE 2.2 mph -999.0 mph 9 % 0 in
15:02 51.1 °F -5.9 °F 30.27 in NW 8.9 mph -999.0 mph 9 % 0 in
15:17 50.9 °F -8.5 °F 30.27 in NNE 4.2 mph -999.0 mph 8 % 0 in
15:32 50.0 °F -9.1 °F 30.28 in NW 4.7 mph -999.0 mph 8 % 0 in
15:48 48.9 °F -3.4 °F 30.29 in ESE 3.2 mph -999.0 mph 11 % 0 in
16:03 47.8 °F -4.3 °F 30.29 in NW 3.2 mph -999.0 mph 11 % 0 in
16:18 46.8 °F -1.5 °F 30.29 in NNE 2.2 mph -999.0 mph 13 % 0 in
16:33 46.2 °F -3.7 °F 30.30 in SSW 1.1 mph -999.0 mph 12 % 0 in
16:48 44.4 °F 3.5 °F 30.30 in Calm   -999.0 mph 18 % 0 in
17:04 42.4 °F 4.1 °F 30.30 in NNW 3.2 mph -999.0 mph 20 % 0 in
17:19 41.2 °F 3.1 °F 30.31 in Calm   -999.0 mph 20 % 0 in
17:34 40.3 °F 2.4 °F 30.32 in NNW 2.2 mph -999.0 mph 20 % 0 in
17:50 39.0 °F 1.3 °F 30.32 in NW 1.7 mph -999.0 mph 20 % 0 in
18:05 39.6 °F 0.7 °F 30.33 in SW 4.2 mph -999.0 mph 19 % 0 in
18:20 39.6 °F -0.5 °F 30.33 in Calm   -999.0 mph 18 % 0 in
18:35 39.2 °F -0.8 °F 30.34 in Calm   -999.0 mph 18 % 0 in
18:51 38.7 °F -1.2 °F 30.33 in SSE 1.1 mph -999.0 mph 18 % 0 in
19:06 38.3 °F -1.6 °F 30.34 in Calm   -999.0 mph 18 % 0 in
19:21 38.3 °F -1.6 °F 30.34 in Calm   -999.0 mph 18 % 0 in
19:37 37.9 °F -3.1 °F 30.35 in SSW 3.2 mph -999.0 mph 17 % 0 in
19:52 38.1 °F -2.9 °F 30.35 in ESE 2.7 mph -999.0 mph 17 % 0 in
20:07 37.4 °F -3.5 °F 30.35 in WNW 1.1 mph -999.0 mph 17 % 0 in
Big Bear CA Weather
Compliments of Weather Underground - 1.5 mb